Time;durP1;ratioP1;P1;durP2;ratioP2;P2;SDS_P1;SDS_P2;PMS_P1;PMS_P2;Temp;Humidity;BMP_temperature;BMP_pressure;BME280_temperature;BME280_humidity;BME280_pressure;Samples;Min_cycle;Max_cycle;Signal;HPM_P1;HPM_P2
2022/03/25 00:01:18;;;;;;;;;;;;;;;18.67;32.54;100914.91;4995826;28;762;-44
2022/03/25 00:03:44;;;;;;;;;;;;;;;18.71;32.42;100910.47;4994938;28;1910;-43
2022/03/25 00:06:10;;;;;;;;;;;;;;;18.64;32.65;100899.78;4996899;28;1426;-47
2022/03/25 00:08:35;;;;;;;;;;;;;;;18.79;32.40;100912.63;4997169;28;1410;-47
2022/03/25 00:11:01;;;;;;;;;;;;;;;18.75;32.42;100905.25;4979222;28;1098;-47
2022/03/25 00:13:26;;;;;;;;;;;;;;;18.71;32.57;100906.91;4988585;28;810;-46
2022/03/25 00:15:52;;;;;;;;;;;;;;;18.71;32.85;100916.00;4996875;28;823;-48
2022/03/25 00:18:17;;;;;;;;;;;;;;;18.70;32.50;100908.81;4990170;28;793;-44
2022/03/25 00:20:44;;;;;;;;;;;;;;;18.71;32.47;100915.19;4996748;28;858;-43
2022/03/25 00:23:10;;;;;;;;;;;;;;;18.78;32.52;100905.47;4996524;28;921;-44
2022/03/25 00:25:35;;;;;;;;;;;;;;;18.74;32.58;100895.31;4994503;28;1911;-45
2022/03/25 00:28:01;;;;;;;;;;;;;;;18.73;32.41;100911.03;4996862;28;846;-48
2022/03/25 00:30:28;;;;;;;;;;;;;;;18.64;32.49;100898.97;4979270;28;896;-42
2022/03/25 00:32:54;;;;;;;;;;;;;;;18.67;32.52;100914.09;4974245;28;1095;-48
2022/03/25 00:35:20;;;;;;;;;;;;;;;18.66;32.42;100913.25;4977915;28;940;-46
2022/03/25 00:37:46;;;;;;;;;;;;;;;18.59;32.64;100915.50;4996410;28;874;-43
2022/03/25 00:40:12;;;;;;;;;;;;;;;18.63;32.57;100913.84;4988797;28;858;-48
2022/03/25 00:42:37;;;;;;;;;;;;;;;18.63;32.55;100930.34;4996708;28;837;-43
2022/03/25 00:45:05;;;;;;;;;;;;;;;18.69;32.71;100939.41;4975909;28;1910;-43
2022/03/25 00:47:30;;;;;;;;;;;;;;;18.64;32.62;100943.84;4978077;28;927;-44
2022/03/25 00:49:56;;;;;;;;;;;;;;;18.59;32.78;100937.53;4975793;28;1117;-44
2022/03/25 00:52:22;;;;;;;;;;;;;;;18.63;32.77;100946.88;4978040;28;780;-47
2022/03/25 00:54:48;;;;;;;;;;;;;;;18.65;32.58;100939.19;4996151;28;819;-44
2022/03/25 00:57:13;;;;;;;;;;;;;;;18.67;32.88;100953.47;4974601;28;1187;-47
2022/03/25 00:59:39;;;;;;;;;;;;;;;18.65;32.94;100939.19;4964157;28;1280;-49
2022/03/25 01:02:07;;;;;;;;;;;;;;;18.54;32.90;100962.38;4960766;28;1344;-43
2022/03/25 01:04:33;;;;;;;;;;;;;;;18.61;32.89;100954.63;4979933;28;1999;-47
2022/03/25 01:06:59;;;;;;;;;;;;;;;18.50;33.16;100964.03;4996333;28;811;-45
2022/03/25 01:09:25;;;;;;;;;;;;;;;18.51;33.02;100972.00;4978719;28;1408;-43
2022/03/25 01:11:50;;;;;;;;;;;;;;;18.46;33.31;100964.56;4978444;28;1128;-44
2022/03/25 01:14:18;;;;;;;;;;;;;;;18.53;33.16;100946.94;4978669;28;1143;-43
2022/03/25 01:16:44;;;;;;;;;;;;;;;18.41;33.28;100967.38;4991313;28;900;-44
2022/03/25 01:19:10;;;;;;;;;;;;;;;18.54;33.08;100965.94;4974722;28;846;-44
2022/03/25 01:21:36;;;;;;;;;;;;;;;18.39;33.27;100960.50;4977516;28;867;-48
2022/03/25 01:24:01;;;;;;;;;;;;;;;18.54;33.03;100956.84;4959792;28;1973;-41
2022/03/25 01:26:26;;;;;;;;;;;;;;;18.49;33.22;100956.88;4977146;28;1101;-43
2022/03/25 01:28:52;;;;;;;;;;;;;;;18.54;33.14;100943.09;4983909;28;815;-45
2022/03/25 01:31:18;;;;;;;;;;;;;;;18.52;33.04;100957.13;4972900;28;1120;-46
2022/03/25 01:33:44;;;;;;;;;;;;;;;18.55;32.89;100964.00;4990482;28;877;-47
2022/03/25 01:36:09;;;;;;;;;;;;;;;18.54;33.13;100954.09;4977620;28;1089;-46
2022/03/25 01:38:35;;;;;;;;;;;;;;;18.51;33.00;100957.41;4995882;28;866;-44
2022/03/25 01:41:00;;;;;;;;;;;;;;;18.60;33.05;100952.97;4978016;28;829;-46
2022/03/25 01:43:26;;;;;;;;;;;;;;;18.59;32.97;100976.09;4984755;28;862;-43
2022/03/25 01:45:52;;;;;;;;;;;;;;;18.60;32.74;100973.06;4976917;28;1909;-44
2022/03/25 01:48:18;;;;;;;;;;;;;;;18.53;33.20;100975.28;4978914;28;1575;-47
2022/03/25 01:50:44;;;;;;;;;;;;;;;18.54;32.82;100965.13;4982273;28;1573;-43
2022/03/25 01:53:17;;;;;;;;;;;;;;;18.55;32.85;100972.25;4999718;28;851;-47
2022/03/25 01:55:54;;;;;;;;;;;;;;;18.60;32.77;100975.00;4978342;28;819;-42
2022/03/25 01:58:20;;;;;;;;;;;;;;;18.60;32.83;100981.31;4958539;28;1156;-46
2022/03/25 02:00:45;;;;;;;;;;;;;;;18.58;32.81;100980.78;4980646;28;854;-46
2022/03/25 02:03:12;;;;;;;;;;;;;;;18.58;32.79;100974.44;4979110;28;878;-43
2022/03/25 02:05:38;;;;;;;;;;;;;;;18.66;32.71;100984.06;4962697;28;1972;-46
2022/03/25 02:08:03;;;;;;;;;;;;;;;18.66;32.69;100986.81;4975663;28;930;-44
2022/03/25 02:10:29;;;;;;;;;;;;;;;18.51;32.91;100990.44;4999155;28;1132;-44
2022/03/25 02:12:56;;;;;;;;;;;;;;;18.60;32.90;100995.09;4999684;28;802;-46
2022/03/25 02:15:31;;;;;;;;;;;;;;;18.55;33.13;101005.31;4956756;28;1163;-42
2022/03/25 02:18:09;;;;;;;;;;;;;;;18.58;33.05;100990.97;4961695;28;1306;-46
2022/03/25 02:20:35;;;;;;;;;;;;;;;18.60;32.80;100986.00;4997535;28;890;-44
2022/03/25 02:23:01;;;;;;;;;;;;;;;18.63;32.70;100993.69;4981075;28;1107;-43
2022/03/25 02:25:26;;;;;;;;;;;;;;;18.72;33.00;101004.94;4981232;28;1918;-41
2022/03/25 02:27:53;;;;;;;;;;;;;;;18.54;33.04;100992.66;4981071;28;1339;-45
2022/03/25 02:30:20;;;;;;;;;;;;;;;18.62;32.90;101005.81;4981383;28;1162;-44
2022/03/25 02:32:46;;;;;;;;;;;;;;;18.53;33.02;101004.78;4979825;28;1269;-47
2022/03/25 02:35:11;;;;;;;;;;;;;;;18.59;33.06;101011.91;4994411;28;826;-44
2022/03/25 02:37:37;;;;;;;;;;;;;;;18.49;33.22;101006.44;4998609;28;834;-44
2022/03/25 02:40:03;;;;;;;;;;;;;;;18.54;33.15;101004.50;4998527;28;841;-40
2022/03/25 02:42:29;;;;;;;;;;;;;;;18.56;33.28;101012.47;4981740;28;1396;-41
2022/03/25 02:44:54;;;;;;;;;;;;;;;18.52;33.18;101006.69;4979878;28;1906;-44
2022/03/25 02:47:20;;;;;;;;;;;;;;;18.42;33.45;100999.28;4973488;28;1287;-43
2022/03/25 02:49:45;;;;;;;;;;;;;;;18.59;33.00;101001.72;4973722;28;1130;-44
2022/03/25 02:52:11;;;;;;;;;;;;;;;18.59;33.21;101022.91;4998349;28;809;-42
2022/03/25 02:54:36;;;;;;;;;;;;;;;18.66;32.97;101006.91;4998603;28;854;-46
2022/03/25 02:57:02;;;;;;;;;;;;;;;18.62;33.03;101023.19;4998671;28;780;-45
2022/03/25 02:59:27;;;;;;;;;;;;;;;18.49;33.35;101009.19;4990912;28;890;-42
2022/03/25 03:01:53;;;;;;;;;;;;;;;18.35;33.50;101018.03;4998157;28;838;-44
2022/03/25 03:04:18;;;;;;;;;;;;;;;18.53;33.33;101011.09;4993903;28;1898;-41
2022/03/25 03:06:43;;;;;;;;;;;;;;;18.41;33.36;101021.59;4998180;28;819;-43
2022/03/25 03:09:09;;;;;;;;;;;;;;;18.57;33.11;101016.88;4998002;28;1039;-41
2022/03/25 03:11:35;;;;;;;;;;;;;;;18.61;33.05;101042.75;4993778;28;798;-45
2022/03/25 03:14:01;;;;;;;;;;;;;;;18.50;33.21;101024.63;4995359;28;782;-48
2022/03/25 03:16:26;;;;;;;;;;;;;;;18.61;33.12;101016.03;4998163;28;794;-41
2022/03/25 03:18:52;;;;;;;;;;;;;;;18.66;33.00;101045.47;4994759;28;849;-48
2022/03/25 03:21:17;;;;;;;;;;;;;;;18.53;33.10;101030.38;4998171;28;835;-47
2022/03/25 03:23:43;;;;;;;;;;;;;;;18.80;32.80;101034.66;4998071;28;1905;-45
2022/03/25 03:26:09;;;;;;;;;;;;;;;18.69;32.87;101019.28;4991092;28;1275;-45
2022/03/25 03:28:35;;;;;;;;;;;;;;;18.75;32.90;101049.31;4997832;28;804;-46
2022/03/25 03:31:00;;;;;;;;;;;;;;;18.74;33.07;101046.81;4997619;28;819;-46
2022/03/25 03:33:26;;;;;;;;;;;;;;;18.83;32.90;101060.84;4989330;28;838;-44
2022/03/25 03:35:51;;;;;;;;;;;;;;;19.09;32.37;101053.31;4979182;28;1403;-45
2022/03/25 03:38:16;;;;;;;;;;;;;;;19.06;32.41;101043.66;4980223;28;830;-44
2022/03/25 03:40:42;;;;;;;;;;;;;;;18.74;33.08;101063.34;4997564;28;834;-43
2022/03/25 03:43:07;;;;;;;;;;;;;;;18.49;33.15;101056.81;4997663;28;799;-42
2022/03/25 03:45:33;;;;;;;;;;;;;;;18.17;33.94;101062.66;4991502;28;1906;-46
2022/03/25 03:47:58;;;;;;;;;;;;;;;17.92;34.07;101065.19;4977404;28;854;-43
2022/03/25 03:50:24;;;;;;;;;;;;;;;17.80;34.19;101072.84;4982452;28;886;-42
2022/03/25 03:52:49;;;;;;;;;;;;;;;17.68;34.58;101062.09;4998003;28;810;-41
2022/03/25 03:55:15;;;;;;;;;;;;;;;17.92;34.69;101069.84;4997500;28;836;-43
2022/03/25 03:57:40;;;;;;;;;;;;;;;17.90;34.42;101083.03;4997325;28;817;-42
2022/03/25 04:00:12;;;;;;;;;;;;;;;17.98;34.18;101084.41;4997280;28;1576;-43
2022/03/25 04:02:41;;;;;;;;;;;;;;;18.17;34.13;101091.00;4988930;28;791;-44
2022/03/25 04:05:06;;;;;;;;;;;;;;;18.55;33.15;101093.44;4997382;28;1942;-43
2022/03/25 04:07:32;;;;;;;;;;;;;;;18.66;32.89;101089.53;4996827;28;989;-47
2022/03/25 04:09:57;;;;;;;;;;;;;;;18.93;32.70;101074.63;4996818;28;894;-43
2022/03/25 04:12:23;;;;;;;;;;;;;;;19.03;32.48;101087.50;4997150;28;782;-43
2022/03/25 04:14:48;;;;;;;;;;;;;;;19.08;32.43;101090.25;4996074;28;854;-41
2022/03/25 04:17:14;;;;;;;;;;;;;;;18.65;32.81;101085.16;4995755;28;778;-44
2022/03/25 04:19:39;;;;;;;;;;;;;;;18.43;33.32;101085.47;4979531;28;992;-45
2022/03/25 04:22:06;;;;;;;;;;;;;;;18.07;33.91;101089.09;4978190;28;833;-44
2022/03/25 04:24:32;;;;;;;;;;;;;;;17.84;34.58;101084.94;4975297;28;1906;-48
2022/03/25 04:26:57;;;;;;;;;;;;;;;17.91;34.22;101090.22;4978363;28;755;-43
2022/03/25 04:29:23;;;;;;;;;;;;;;;17.82;34.52;101089.06;4983013;28;834;-43
2022/03/25 04:31:48;;;;;;;;;;;;;;;17.62;34.70;101093.44;4996974;28;763;-49
2022/03/25 04:34:14;;;;;;;;;;;;;;;17.67;34.69;101089.88;4987311;28;933;-45
2022/03/25 04:36:39;;;;;;;;;;;;;;;17.68;34.75;101086.84;4985771;28;833;-45
2022/03/25 04:39:04;;;;;;;;;;;;;;;18.11;33.95;101094.88;4977911;28;788;-46
2022/03/25 04:41:30;;;;;;;;;;;;;;;18.50;33.24;101096.22;4984674;28;846;-48
2022/03/25 04:43:55;;;;;;;;;;;;;;;18.61;32.85;101104.16;4996406;28;1906;-47
2022/03/25 04:46:21;;;;;;;;;;;;;;;18.93;32.45;101096.66;4983864;28;966;-48
2022/03/25 04:48:46;;;;;;;;;;;;;;;19.01;32.51;101104.31;4976333;28;860;-44
2022/03/25 04:51:12;;;;;;;;;;;;;;;19.18;32.06;101122.44;4977427;28;926;-44
2022/03/25 04:53:38;;;;;;;;;;;;;;;19.18;32.34;101133.47;4973480;28;918;-44
2022/03/25 04:56:04;;;;;;;;;;;;;;;18.98;32.32;101136.06;4996378;28;838;-45
2022/03/25 04:58:29;;;;;;;;;;;;;;;18.60;33.07;101126.47;4957706;28;1560;-43
2022/03/25 05:00:55;;;;;;;;;;;;;;;18.33;32.98;101146.03;4965826;28;938;-45
2022/03/25 05:03:21;;;;;;;;;;;;;;;18.15;32.83;101140.00;4978730;28;1061;-47
2022/03/25 05:05:47;;;;;;;;;;;;;;;18.04;33.17;101149.38;4994443;28;1910;-49
2022/03/25 05:08:12;;;;;;;;;;;;;;;17.72;33.48;101153.16;4992825;28;1089;-48
2022/03/25 05:10:38;;;;;;;;;;;;;;;17.57;33.89;101148.44;4976500;28;1117;-43
2022/03/25 05:13:04;;;;;;;;;;;;;;;17.77;33.75;101156.72;4976984;28;1286;-47
2022/03/25 05:15:29;;;;;;;;;;;;;;;17.94;33.48;101163.94;4977607;28;747;-46
2022/03/25 05:17:54;;;;;;;;;;;;;;;18.26;32.81;101163.69;4977536;28;862;-48
2022/03/25 05:20:20;;;;;;;;;;;;;;;18.56;32.20;101155.66;4985769;28;751;-46
2022/03/25 05:22:46;;;;;;;;;;;;;;;18.76;31.96;101172.16;4997870;28;871;-48
2022/03/25 05:25:11;;;;;;;;;;;;;;;19.06;31.49;101159.44;4999665;28;1985;-47
2022/03/25 05:27:44;;;;;;;;;;;;;;;19.10;31.33;101156.94;4987574;28;1239;-46
2022/03/25 05:30:10;;;;;;;;;;;;;;;19.17;31.38;101156.63;4980255;28;747;-43
2022/03/25 05:32:36;;;;;;;;;;;;;;;18.65;32.28;101154.03;4987414;28;1033;-47
2022/03/25 05:35:01;;;;;;;;;;;;;;;18.38;32.74;101155.13;4973372;28;1117;-47
2022/03/25 05:37:27;;;;;;;;;;;;;;;18.20;33.15;101161.19;4980212;28;899;-46
2022/03/25 05:39:52;;;;;;;;;;;;;;;17.85;33.52;101143.53;4979892;28;1073;-49
2022/03/25 05:42:18;;;;;;;;;;;;;;;17.91;33.47;101162.56;4979987;28;1020;-43
2022/03/25 05:44:43;;;;;;;;;;;;;;;17.72;33.74;101170.47;4982159;28;1902;-46
2022/03/25 05:47:09;;;;;;;;;;;;;;;17.58;34.32;101163.84;4979840;28;1203;-48
2022/03/25 05:49:34;;;;;;;;;;;;;;;17.83;34.02;101165.00;4994208;28;1088;-45
2022/03/25 05:52:00;;;;;;;;;;;;;;;18.35;33.17;101161.19;4998576;28;931;-46
2022/03/25 05:54:25;;;;;;;;;;;;;;;18.79;32.17;101176.31;4998247;28;850;-44
2022/03/25 05:56:50;;;;;;;;;;;;;;;19.07;31.56;101169.34;4997592;28;847;-48
2022/03/25 05:59:16;;;;;;;;;;;;;;;19.29;31.57;101173.66;4998145;28;882;-49
2022/03/25 06:01:42;;;;;;;;;;;;;;;18.88;32.02;101182.09;4998142;28;823;-46
2022/03/25 06:04:07;;;;;;;;;;;;;;;18.45;32.44;101193.41;4984996;28;1898;-47
2022/03/25 06:06:33;;;;;;;;;;;;;;;17.96;33.64;101189.25;4979540;28;854;-43
2022/03/25 06:08:58;;;;;;;;;;;;;;;16.62;35.63;101185.03;4978812;28;1086;-46
2022/03/25 06:11:24;;;;;;;;;;;;;;;17.74;33.43;101189.44;4987252;28;946;-46
2022/03/25 06:13:49;;;;;;;;;;;;;;;17.61;33.59;101190.78;4998536;28;793;-48
2022/03/25 06:16:17;;;;;;;;;;;;;;;17.52;33.68;101186.94;4998084;28;794;-43
2022/03/25 06:18:42;;;;;;;;;;;;;;;17.49;33.90;101198.44;4986447;28;833;-42
2022/03/25 06:21:08;;;;;;;;;;;;;;;17.48;33.89;101186.63;4979264;28;1208;-47
2022/03/25 06:23:33;;;;;;;;;;;;;;;18.23;32.72;101191.75;4991384;28;904;-42
2022/03/25 06:25:59;;;;;;;;;;;;;;;18.75;31.53;101181.53;4938786;28;1204603;-46
2022/03/25 06:28:25;;;;;;;;;;;;;;;18.89;31.38;101181.00;4980018;28;1193;-46
2022/03/25 06:30:51;;;;;;;;;;;;;;;18.80;31.70;101184.28;4976558;28;1341;-45
2022/03/25 06:33:16;;;;;;;;;;;;;;;18.59;31.75;101188.16;4987518;28;1148;-49
2022/03/25 06:35:44;;;;;;;;;;;;;;;18.49;32.06;101188.19;4988459;28;775;-46
2022/03/25 06:38:09;;;;;;;;;;;;;;;18.25;32.51;101195.06;4999745;28;907;-48
2022/03/25 06:40:35;;;;;;;;;;;;;;;18.04;33.05;101185.97;4999113;28;786;-46
2022/03/25 06:43:01;;;;;;;;;;;;;;;17.98;33.34;101189.81;4999067;28;817;-44
2022/03/25 06:45:26;;;;;;;;;;;;;;;17.98;33.31;101189.81;4993621;28;1905;-47
2022/03/25 06:47:52;;;;;;;;;;;;;;;18.17;32.79;101195.59;4981676;28;1032;-45
2022/03/25 06:50:18;;;;;;;;;;;;;;;18.47;32.49;101188.47;4998849;28;814;-44
2022/03/25 06:52:43;;;;;;;;;;;;;;;18.89;31.72;101195.59;4999238;28;835;-47
2022/03/25 06:55:09;;;;;;;;;;;;;;;19.26;31.27;101193.53;4998916;28;908;-49
2022/03/25 06:57:35;;;;;;;;;;;;;;;19.44;30.67;101198.41;4998765;28;862;-48
2022/03/25 07:00:00;;;;;;;;;;;;;;;18.85;31.70;101202.72;4993557;28;1097;-48
2022/03/25 07:02:26;;;;;;;;;;;;;;;18.55;31.90;101182.41;4980504;28;1077;-47
2022/03/25 07:04:51;;;;;;;;;;;;;;;17.50;34.05;101197.34;4974021;28;1977;-44
2022/03/25 07:07:18;;;;;;;;;;;;;;;17.09;34.79;101182.34;4980062;28;826;-43
2022/03/25 07:09:43;;;;;;;;;;;;;;;17.54;33.97;101184.72;4980037;28;977;-48
2022/03/25 07:12:09;;;;;;;;;;;;;;;17.65;33.62;101189.16;4972963;28;823;-48
2022/03/25 07:14:35;;;;;;;;;;;;;;;17.78;33.29;101191.41;4991854;28;835;-46
2022/03/25 07:17:00;;;;;;;;;;;;;;;17.85;32.97;101190.28;4998584;28;803;-45
2022/03/25 07:19:26;;;;;;;;;;;;;;;18.06;32.80;101188.44;4989946;28;845;-49
2022/03/25 07:21:52;;;;;;;;;;;;;;;18.08;32.95;101178.00;4997464;28;882;-45
2022/03/25 07:24:17;;;;;;;;;;;;;;;18.28;32.71;101191.75;4994670;28;1898;-47
2022/03/25 07:26:43;;;;;;;;;;;;;;;18.64;32.01;101188.97;4978226;28;1786;-42
2022/03/25 07:29:09;;;;;;;;;;;;;;;18.79;31.73;101199.16;4996562;28;891;-49
2022/03/25 07:31:34;;;;;;;;;;;;;;;19.02;31.54;101183.16;4998034;28;904;-43
2022/03/25 07:34:00;;;;;;;;;;;;;;;19.15;30.97;101177.06;4995277;28;873;-45
2022/03/25 07:39:13;;;;;;;;;;;;;;;18.38;32.45;101188.16;4988825;23;6982;-60
2022/03/25 07:41:39;;;;;;;;;;;;;;;18.18;32.65;101182.69;4994612;28;988;-60
2022/03/25 07:44:07;;;;;;;;;;;;;;;17.95;33.26;101171.91;5001991;28;1975;-62
2022/03/25 07:46:32;;;;;;;;;;;;;;;17.71;33.85;101181.75;4996712;28;1225;-59
2022/03/25 07:48:58;;;;;;;;;;;;;;;17.79;33.46;101187.56;5001617;28;1230;-60
2022/03/25 07:51:35;;;;;;;;;;;;;;;17.82;33.48;101175.16;5009490;28;1149;-61
2022/03/25 07:54:08;;;;;;;;;;;;;;;18.00;33.47;101176.59;4997112;28;1153;-59
2022/03/25 07:56:34;;;;;;;;;;;;;;;17.99;33.37;101180.44;5003249;28;960;-60
2022/03/25 07:58:59;;;;;;;;;;;;;;;18.06;33.27;101175.53;4998869;28;981;-61
2022/03/25 08:01:26;;;;;;;;;;;;;;;18.36;32.65;101189.56;5016863;28;790;-62
2022/03/25 08:03:51;;;;;;;;;;;;;;;18.66;32.29;101177.69;5003723;28;1130;-62
2022/03/25 08:06:17;;;;;;;;;;;;;;;18.79;31.79;101165.28;4999909;28;1968;-62
2022/03/25 08:08:47;;;;;;;;;;;;;;;18.98;31.55;101174.63;4996086;28;1307;-62
2022/03/25 08:11:13;;;;;;;;;;;;;;;19.26;31.28;101174.25;5009962;28;1100;-62
2022/03/25 08:13:38;;;;;;;;;;;;;;;19.39;30.92;101178.31;5016871;28;825;-63
2022/03/25 08:16:04;;;;;;;;;;;;;;;18.80;32.09;101169.66;5015035;28;956;-62
2022/03/25 08:18:29;;;;;;;;;;;;;;;17.58;34.31;101169.34;5005760;28;860;-62
2022/03/25 08:20:57;;;;;;;;;;;;;;;17.34;34.49;101161.56;4979672;28;1271;-62
2022/03/25 08:28:53;;;;;;;;;;;;;;;17.62;34.24;101153.94;5017077;28;866;-62
2022/03/25 08:31:19;;;;;;;;;;;;;;;18.17;33.33;101159.81;5010533;28;1003;-62
2022/03/25 08:33:46;;;;;;;;;;;;;;;18.52;32.54;101149.88;4987568;28;1016;-63
2022/03/25 08:36:15;;;;;;;;;;;;;;;18.81;31.96;101144.59;4999751;28;857;-62
2022/03/25 08:38:40;;;;;;;;;;;;;;;18.96;31.90;101140.19;5007893;28;1147;-63
2022/03/25 08:41:06;;;;;;;;;;;;;;;19.05;31.45;101155.03;4992866;28;1042;-62
2022/03/25 08:43:36;;;;;;;;;;;;;;;19.19;31.49;101151.66;4993755;28;1204;-62
2022/03/25 08:46:08;;;;;;;;;;;;;;;19.22;31.29;101149.16;4993500;28;1902;-62
2022/03/25 08:48:34;;;;;;;;;;;;;;;18.95;31.69;101144.03;4995990;28;1205;-62
2022/03/25 08:51:04;;;;;;;;;;;;;;;18.66;32.50;101149.31;4997041;28;1114;-62
2022/03/25 08:53:33;;;;;;;;;;;;;;;18.51;32.85;101153.75;4990711;28;795;-62
2022/03/25 08:56:01;;;;;;;;;;;;;;;18.15;33.21;101139.19;5015307;28;857;-63
2022/03/25 08:58:27;;;;;;;;;;;;;;;18.00;33.67;101148.25;5016213;28;884;-62
2022/03/25 09:00:53;;;;;;;;;;;;;;;17.90;33.71;101149.06;5012574;28;857;-62
2022/03/25 09:03:19;;;;;;;;;;;;;;;17.98;33.57;101144.94;5008818;28;904;-62
2022/03/25 09:05:44;;;;;;;;;;;;;;;18.12;33.35;101144.13;5016069;28;1902;-62
2022/03/25 09:08:09;;;;;;;;;;;;;;;18.30;33.23;101144.69;5016719;28;810;-62
2022/03/25 09:10:35;;;;;;;;;;;;;;;18.58;32.80;101142.44;4997282;28;830;-61
2022/03/25 09:13:00;;;;;;;;;;;;;;;18.89;32.02;101140.47;4997537;28;853;-62
2022/03/25 09:15:26;;;;;;;;;;;;;;;19.08;31.75;101151.72;4997303;28;862;-63
2022/03/25 09:17:52;;;;;;;;;;;;;;;19.24;31.58;101149.72;4998400;28;825;-63
2022/03/25 09:20:17;;;;;;;;;;;;;;;19.39;31.10;101161.78;5016198;28;906;-63
2022/03/25 09:22:43;;;;;;;;;;;;;;;19.07;31.78;101155.56;4998136;28;1017;-60
2022/03/25 09:25:08;;;;;;;;;;;;;;;18.77;32.25;101157.28;4993690;28;1906;-63
2022/03/25 09:27:34;;;;;;;;;;;;;;;18.46;32.70;101129.78;5003757;28;1267;-62
2022/03/25 09:30:00;;;;;;;;;;;;;;;18.16;33.32;101138.06;5016302;28;754;-62
2022/03/25 09:32:25;;;;;;;;;;;;;;;17.95;33.83;101138.09;5008620;28;997;-62
2022/03/25 09:35:09;;;;;;;;;;;;;;;17.83;33.94;101127.31;5006053;28;767;-61
2022/03/25 09:37:42;;;;;;;;;;;;;;;17.99;33.88;101141.09;5016324;28;1157;-63
2022/03/25 09:40:14;;;;;;;;;;;;;;;18.46;32.96;101137.22;5016373;28;750;-60
2022/03/25 09:42:40;;;;;;;;;;;;;;;18.68;32.31;101150.69;5009137;28;982;-57
2022/03/25 09:45:06;;;;;;;;;;;;;;;18.92;32.16;101142.66;4996281;28;1961;-58
2022/03/25 09:47:32;;;;;;;;;;;;;;;19.11;31.50;101145.63;4997350;28;759;-57
2022/03/25 09:50:00;;;;;;;;;;;;;;;19.18;31.56;101139.00;4997402;28;1037;-58
2022/03/25 09:52:29;;;;;;;;;;;;;;;19.16;31.64;101139.28;4996931;28;913;-57
2022/03/25 09:54:54;;;;;;;;;;;;;;;18.90;32.08;101133.03;4979383;28;926;-58
2022/03/25 09:57:20;;;;;;;;;;;;;;;18.36;32.77;101127.06;4997294;28;820;-58
2022/03/25 09:59:45;;;;;;;;;;;;;;;18.18;33.30;101138.63;4996457;28;833;-57
2022/03/25 10:02:11;;;;;;;;;;;;;;;18.12;33.38;101133.13;5010872;28;838;-57
2022/03/25 10:04:42;;;;;;;;;;;;;;;17.97;33.65;101141.38;4997789;28;1906;-61
2022/03/25 10:07:15;;;;;;;;;;;;;;;17.79;34.09;101132.53;5003135;28;787;-58
2022/03/25 10:09:41;;;;;;;;;;;;;;;18.03;33.73;101140.28;5003002;28;1169;-57
2022/03/25 10:12:19;;;;;;;;;;;;;;;18.85;32.16;101119.25;5006412;28;877;-57
2022/03/25 10:14:46;;;;;;;;;;;;;;;19.09;31.75;101127.72;5000275;28;1097;-65
2022/03/25 10:17:11;;;;;;;;;;;;;;;18.84;32.10;101139.63;5000024;28;786;-60
2022/03/25 10:19:45;;;;;;;;;;;;;;;18.73;32.43;101133.31;5002992;28;1456;-58
2022/03/25 10:22:11;;;;;;;;;;;;;;;18.60;32.73;101121.78;5000303;28;1151;-58
2022/03/25 10:24:36;;;;;;;;;;;;;;;18.50;32.81;101134.78;4980657;28;2079;-57
2022/03/25 10:27:04;;;;;;;;;;;;;;;18.48;32.92;101126.75;5000106;28;1264;-58
2022/03/25 10:29:29;;;;;;;;;;;;;;;18.16;33.32;101124.31;4999444;28;1216;-57
2022/03/25 10:32:05;;;;;;;;;;;;;;;18.26;33.14;101127.09;4999209;28;1252;-59
2022/03/25 10:34:30;;;;;;;;;;;;;;;18.28;33.32;101130.38;4999238;28;1019;-58
2022/03/25 10:37:00;;;;;;;;;;;;;;;18.10;33.49;101121.59;4981915;28;1505;-59
2022/03/25 10:39:29;;;;;;;;;;;;;;;18.35;33.15;101133.66;5003681;28;873;-58
2022/03/25 10:41:58;;;;;;;;;;;;;;;18.44;32.91;101129.25;5003412;28;1437;-58
2022/03/25 10:44:40;;;;;;;;;;;;;;;18.80;32.65;101134.69;4999740;28;1898;-59
2022/03/25 10:47:14;;;;;;;;;;;;;;;19.11;32.02;101128.25;5005702;28;1256;-60
2022/03/25 10:49:43;;;;;;;;;;;;;;;19.22;31.71;101127.09;4994416;28;806;-56
2022/03/25 10:52:19;;;;;;;;;;;;;;;19.17;31.87;101121.63;4999716;28;782;-58
2022/03/25 10:54:44;;;;;;;;;;;;;;;18.92;32.18;101125.31;5007516;28;873;-59
2022/03/25 10:57:10;;;;;;;;;;;;;;;18.61;32.91;101115.19;5001455;28;1750;-60
2022/03/25 10:59:35;;;;;;;;;;;;;;;18.47;33.12;101131.44;4981583;28;1094;-59
2022/03/25 11:02:01;;;;;;;;;;;;;;;18.08;33.76;101131.22;4998572;28;1307;-59
2022/03/25 11:04:26;;;;;;;;;;;;;;;17.91;34.02;101120.47;4999041;28;1977;-58
2022/03/25 11:06:52;;;;;;;;;;;;;;;17.75;34.23;101130.59;4997115;28;1437;-58
2022/03/25 11:09:18;;;;;;;;;;;;;;;17.66;34.47;101113.81;5015784;28;1556;-59
2022/03/25 11:11:44;;;;;;;;;;;;;;;17.68;34.57;101125.34;5017892;28;912;-57
2022/03/25 11:14:10;;;;;;;;;;;;;;;18.46;33.12;101128.97;4999516;28;1097;-59
2022/03/25 11:16:35;;;;;;;;;;;;;;;18.92;32.63;101117.06;4998085;28;1068;-59
2022/03/25 11:19:01;;;;;;;;;;;;;;;18.99;32.17;101117.56;5017955;28;746;-60
2022/03/25 11:21:27;;;;;;;;;;;;;;;18.87;32.23;101122.53;5015814;28;934;-60
2022/03/25 11:23:52;;;;;;;;;;;;;;;18.69;32.60;101097.25;5000181;28;1452;-58
2022/03/25 11:26:19;;;;;;;;;;;;;;;18.57;33.04;101110.50;5001685;28;1913;-57
2022/03/25 11:28:45;;;;;;;;;;;;;;;18.33;33.42;101107.50;4992981;28;1275;-58
2022/03/25 11:31:10;;;;;;;;;;;;;;;18.28;33.32;101116.59;4978205;28;1181;-59
2022/03/25 11:33:56;;;;;;;;;;;;;;;18.32;33.25;101100.38;4997808;28;1247;-57
2022/03/25 11:36:24;;;;;;;;;;;;;;;18.16;33.62;101097.63;5005452;28;1386;-61
2022/03/25 11:38:53;;;;;;;;;;;;;;;18.21;33.55;101099.56;5010967;28;1077;-63
2022/03/25 11:41:20;;;;;;;;;;;;;;;18.07;33.91;101094.59;4987611;28;1387;-57
2022/03/25 11:43:45;;;;;;;;;;;;;;;18.07;33.73;101089.09;5017505;28;887;-62
2022/03/25 11:46:11;;;;;;;;;;;;;;;18.01;33.86;101083.88;4987996;28;1917;-53
2022/03/25 11:48:37;;;;;;;;;;;;;;;18.09;33.82;101086.91;4992305;28;870;-54
2022/03/25 11:51:23;;;;;;;;;;;;;;;18.10;33.61;101090.47;5017545;28;791;-59
2022/03/25 11:53:48;;;;;;;;;;;;;;;18.13;33.95;101087.16;5007483;28;1811;-59
2022/03/25 11:56:14;;;;;;;;;;;;;;;18.44;33.16;101087.94;5017508;28;757;-60
2022/03/25 11:58:55;;;;;;;;;;;;;;;18.75;32.84;101090.63;5016999;28;915;-60
2022/03/25 12:01:21;;;;;;;;;;;;;;;19.01;32.15;101085.03;5016694;28;834;-56
2022/03/25 12:03:52;;;;;;;;;;;;;;;19.01;32.16;101090.53;5012696;28;1522;-59
2022/03/25 12:06:17;;;;;;;;;;;;;;;19.21;31.87;101094.31;5004938;28;1914;-60
2022/03/25 12:09:03;;;;;;;;;;;;;;;19.30;31.88;101095.38;4998208;28;874;-58
2022/03/25 12:11:47;;;;;;;;;;;;;;;19.01;32.14;101100.75;4998120;28;790;-60
2022/03/25 12:14:12;;;;;;;;;;;;;;;18.63;32.86;101090.09;4998715;28;981;-59
2022/03/25 12:16:47;;;;;;;;;;;;;;;18.44;33.40;101104.47;4997137;28;1406;-58
2022/03/25 12:19:31;;;;;;;;;;;;;;;18.17;33.63;101103.94;5006073;28;783;-60
2022/03/25 12:22:00;;;;;;;;;;;;;;;18.00;34.07;101107.00;5007547;28;1684;-59
2022/03/25 12:24:26;;;;;;;;;;;;;;;18.01;33.79;101116.91;5008315;28;1910;-57
2022/03/25 12:26:54;;;;;;;;;;;;;;;17.70;34.57;101117.66;4997705;28;1453;-58
2022/03/25 12:29:20;;;;;;;;;;;;;;;17.73;34.65;101128.13;4998020;28;1393;-58
2022/03/25 12:31:51;;;;;;;;;;;;;;;18.08;34.03;101118.25;4983180;28;1264;-60
2022/03/25 12:34:17;;;;;;;;;;;;;;;18.59;33.11;101133.91;4975579;28;1303;-54
2022/03/25 12:36:44;;;;;;;;;;;;;;;19.01;32.28;101134.63;4999853;28;1277;-56
2022/03/25 12:39:13;;;;;;;;;;;;;;;19.27;32.05;101137.31;4976969;28;1309;-59
2022/03/25 12:41:39;;;;;;;;;;;;;;;19.53;31.62;101134.41;4997605;28;1125;-54
2022/03/25 12:44:04;;;;;;;;;;;;;;;18.68;32.75;101134.16;4986337;28;1902;-56
2022/03/25 12:46:30;;;;;;;;;;;;;;;17.98;34.38;101126.53;5016238;28;901;-59
2022/03/25 12:49:07;;;;;;;;;;;;;;;17.18;35.83;101132.34;5016749;28;901;-59
2022/03/25 12:51:33;;;;;;;;;;;;;;;17.07;36.20;101137.00;5016313;28;781;-57
2022/03/25 12:54:00;;;;;;;;;;;;;;;17.73;34.60;101141.88;5015423;28;845;-60
2022/03/25 12:56:25;;;;;;;;;;;;;;;18.02;34.21;101152.41;4994769;28;1504;-57
2022/03/25 12:58:53;;;;;;;;;;;;;;;18.13;33.77;101169.72;4997222;28;846;-58